createdAt,value
2024-04-23T00:05:53.825Z,91.16
2024-04-23T00:15:54.404Z,89.96
2024-04-23T00:25:54.987Z,90.39
2024-04-23T00:35:55.363Z,89.00
2024-04-23T00:45:55.832Z,88.46
2024-04-23T00:55:56.777Z,88.03
2024-04-23T01:05:56.769Z,86.61
2024-04-23T01:15:57.314Z,85.82
2024-04-23T01:25:57.925Z,85.65
2024-04-23T01:35:58.351Z,85.32
2024-04-23T01:45:58.875Z,84.99
2024-04-23T01:55:59.436Z,85.68
2024-04-23T02:05:59.907Z,88.61
2024-04-23T02:16:00.377Z,91.27
2024-04-23T02:26:02.440Z,90.62
2024-04-23T02:36:01.276Z,89.91
2024-04-23T02:46:01.762Z,89.56
2024-04-23T02:56:02.216Z,91.80
2024-04-23T03:06:03.824Z,93.69
2024-04-23T03:16:05.386Z,94.36
2024-04-23T03:26:04.653Z,93.75
2024-04-23T03:36:05.063Z,97.25
2024-04-23T03:46:05.504Z,97.35
2024-04-23T03:56:04.686Z,99.24
2024-04-23T04:06:05.071Z,100.00
2024-04-23T04:16:05.373Z,100.00
2024-04-23T04:26:05.790Z,98.53
2024-04-23T04:36:06.102Z,97.50
2024-04-23T04:46:06.432Z,95.66
2024-04-23T04:56:08.043Z,92.67
2024-04-23T05:06:08.671Z,91.72
2024-04-23T05:16:07.630Z,88.88
2024-04-23T05:26:08.119Z,79.99
2024-04-23T05:36:08.795Z,79.77
2024-04-23T05:46:09.283Z,79.10
2024-04-23T05:56:09.952Z,76.09
2024-04-23T06:06:10.760Z,74.88
2024-04-23T06:16:12.878Z,72.49
2024-04-23T06:26:12.363Z,75.32
2024-04-23T06:36:13.177Z,74.43
2024-04-23T06:46:13.981Z,72.82
2024-04-23T06:56:14.790Z,67.85
2024-04-23T07:06:15.770Z,67.30
2024-04-23T07:16:16.612Z,67.01
2024-04-23T07:26:17.515Z,63.21
2024-04-23T07:46:19.325Z,63.60
2024-04-23T07:56:20.350Z,59.69
2024-04-23T08:06:21.278Z,63.16
2024-04-23T08:16:22.301Z,63.01
2024-04-23T08:26:23.223Z,64.32
2024-04-23T08:36:25.327Z,66.37
2024-04-23T08:46:24.961Z,67.65
2024-04-23T08:56:27.182Z,68.77
2024-04-23T09:06:26.650Z,69.18
2024-04-23T09:26:28.342Z,69.32
2024-04-23T09:36:29.139Z,69.58
2024-04-23T09:46:30.030Z,69.11
2024-04-23T09:56:30.834Z,68.70
2024-04-23T10:06:31.787Z,69.55
2024-04-23T10:16:32.601Z,69.40
2024-04-23T10:26:33.485Z,68.35
2024-04-23T10:36:34.401Z,67.10
2024-04-23T10:46:35.470Z,65.46
2024-04-23T10:56:36.256Z,65.47
2024-04-23T11:06:37.322Z,63.36
2024-04-23T11:16:38.190Z,62.81
2024-04-23T11:26:39.187Z,61.22
2024-04-23T11:36:40.241Z,60.39
2024-04-23T11:46:41.408Z,60.23
2024-04-23T11:56:42.491Z,58.79
2024-04-23T12:06:43.637Z,59.27
2024-04-23T12:16:44.788Z,59.67
2024-04-23T12:26:45.899Z,59.51
2024-04-23T12:36:47.029Z,60.34
2024-04-23T12:56:51.105Z,63.40
2024-04-23T13:06:50.241Z,67.50
2024-04-23T13:16:52.056Z,65.29
2024-04-23T13:26:52.391Z,62.10
2024-04-23T13:36:53.530Z,61.35
2024-04-23T13:46:54.633Z,60.13
2024-04-23T13:56:55.722Z,61.48
2024-04-23T14:06:56.793Z,60.99
2024-04-23T14:16:58.229Z,61.49
2024-04-23T14:26:58.907Z,64.97
2024-04-23T14:37:00.060Z,67.76
2024-04-23T14:47:01.299Z,71.56
2024-04-23T14:57:02.313Z,75.62
2024-04-23T15:07:03.421Z,78.22
2024-04-23T15:17:04.579Z,80.69
2024-04-23T15:27:05.629Z,82.97
2024-04-23T15:37:06.722Z,83.83
2024-04-23T15:47:07.934Z,82.65
2024-04-23T15:57:08.855Z,82.70
2024-04-23T16:07:09.912Z,84.27
2024-04-23T16:17:11.095Z,85.44
2024-04-23T16:27:12.055Z,86.75
2024-04-23T16:37:13.062Z,87.04
2024-04-23T16:47:14.148Z,87.98
2024-04-23T16:57:15.117Z,89.19
2024-04-23T17:07:16.226Z,93.08
2024-04-23T17:17:17.358Z,93.95
2024-04-23T17:27:18.325Z,92.67
2024-04-23T17:37:19.391Z,91.93
2024-04-23T17:47:20.483Z,90.82
2024-04-23T17:57:21.413Z,89.50
2024-04-23T18:07:22.606Z,89.22
2024-04-23T18:17:24.987Z,88.43
2024-04-23T18:27:24.542Z,91.79
2024-04-23T18:37:25.730Z,92.44
2024-04-23T18:47:26.588Z,91.12
2024-04-23T18:57:27.679Z,90.79
2024-04-23T19:07:28.719Z,91.10
2024-04-23T19:17:31.058Z,93.97
2024-04-23T19:27:30.578Z,96.85
2024-04-23T19:37:31.688Z,97.94
2024-04-23T19:47:32.625Z,98.72
2024-04-23T19:57:35.011Z,100.00
2024-04-23T20:07:34.432Z,100.00
2024-04-23T20:27:36.127Z,100.00
2024-04-23T20:37:37.040Z,100.00
2024-04-23T20:47:38.033Z,100.00
2024-04-23T20:57:38.809Z,100.00
2024-04-23T21:07:39.722Z,100.00
2024-04-23T21:17:40.860Z,100.00
2024-04-23T21:27:41.447Z,100.00
2024-04-23T21:37:42.430Z,100.00
2024-04-23T21:47:43.352Z,100.00
2024-04-23T21:57:44.134Z,100.00
2024-04-23T22:07:44.965Z,100.00
2024-04-23T22:17:45.896Z,100.00
2024-04-23T22:27:46.714Z,100.00
2024-04-23T22:37:47.511Z,100.00
2024-04-23T22:47:48.347Z,100.00
2024-04-23T22:57:49.101Z,100.00
2024-04-23T23:07:49.909Z,100.00
2024-04-23T23:17:50.813Z,100.00
2024-04-23T23:27:51.574Z,100.00
2024-04-23T23:37:52.366Z,100.00
2024-04-23T23:47:54.499Z,100.00
2024-04-23T23:57:53.811Z,100.00
